Brisbane - nearby METAR Reports

YBBN - Brisbane Intl Ar, Australia
Distance from station: NNE 11km
Updated: 19/06/2019 13:30
Clear
Clear
 Wind from E
Wind: E 15 km/h
Temperature: 21°C
Dew Point: 9°C
Humidity: 46%
Barometer: 1017 hPa
Summary: Clear
Visibility: greater than 10 km
2019/06/19 03:30 YBBN 190330Z 10008KT CAVOK 21/09 Q1017 NOSIG
YAMB - Amberley, Australia
Distance from station: WSW 42km
Updated: 19/06/2019 14:00
Clear
Clear
 Wind from NW
Wind: NW 11 km/h
Temperature: 23°C
Dew Point: 7°C
Humidity: 36%
Barometer: 1016 hPa
Summary: Clear
Visibility: greater than 10 km
2019/06/19 04:00 YAMB 190400Z 31006KT 270V340 CAVOK 23/07 Q1016 NOSIG
 
YBCG - Coolangatta Aws, Australia
Distance from station: SSE 102km
Updated: 19/06/2019 14:00
Partly cloudy
Partly cloudy
 Wind from SE
Wind: SE 22 km/h
Temperature: 21°C
Dew Point: 12°C
Humidity: 57%
Barometer: 1017 hPa
Clouds: Partly cloudy
Visibility: 10 km
Cloud details: Partly cloudy 1097 m
2019/06/19 04:00 YBCG 190400Z AUTO 13012KT 9999 // SCT036 21/12 Q1017